Badlands Natl Park, South Dakota
Current Conditions -  °F | °C
As of 12:55 AM on Saturday 20 Dec 2014 (Local Time) from KPHP Reporting Station
Clear Clear  
Wind Chill: 21°   Ceiling: Unl
Heat Index: 21°   Visibility: 10mi
Dew Point: 17°   Wind: 0mph
Humidity: 85%   Direction: NA
Pressure: 29.94"   Gusts: NA
Location:  43.78°N, 102.25°W
Report Text: KPHP 200755Z AUTO 00000KT 10SM CLR M06/M08 A2994 RMK AO2 SLP152 T10611083
Loading
Personal Weather Stations






























Interactive Weather Map New forecast layout! Learn more

10-Day Weather Forecast

Advertisements
Track Severe Weather on mobile